createdAt,value
2019-02-28T00:00:46.052Z,101224.71
2019-02-28T00:05:48.850Z,101229.65
2019-02-28T00:10:51.558Z,101228.81
2019-02-28T00:15:54.256Z,101217.02
2019-02-28T00:20:56.933Z,101212.98
2019-02-28T00:25:59.623Z,101196.55
2019-02-28T00:31:02.369Z,101184.36
2019-02-28T00:36:05.068Z,101190.70
2019-02-28T00:41:09.374Z,101188.12
2019-02-28T00:46:12.363Z,101188.05
2019-02-28T00:51:15.059Z,101181.67
2019-02-28T00:56:18.358Z,101183.48
2019-02-28T01:01:21.246Z,101183.09
2019-02-28T01:06:23.977Z,101184.39
2019-02-28T01:11:26.688Z,101178.30
2019-02-28T01:16:29.404Z,101162.70
2019-02-28T01:21:32.092Z,101154.10
2019-02-28T01:26:34.787Z,101154.22
2019-02-28T01:31:37.489Z,101144.39
2019-02-28T01:36:40.184Z,101136.64
2019-02-28T01:41:45.272Z,101135.55
2019-02-28T01:46:48.482Z,101140.77
2019-02-28T01:51:52.061Z,101133.80
2019-02-28T01:56:54.744Z,101134.13
2019-02-28T02:01:57.461Z,101119.80
2019-02-28T02:07:00.480Z,101117.73
2019-02-28T02:12:03.308Z,101107.12
2019-02-28T02:17:06.027Z,101103.34
2019-02-28T02:22:09.512Z,101104.69
2019-02-28T02:27:13.034Z,101096.89
2019-02-28T02:32:15.774Z,101100.84
2019-02-28T02:37:18.654Z,101086.56
2019-02-28T02:42:21.392Z,101083.16
2019-02-28T02:47:24.119Z,101085.47
2019-02-28T02:52:30.428Z,101082.59
2019-02-28T02:57:31.519Z,101073.97
2019-02-28T03:02:34.389Z,101064.91
2019-02-28T03:07:37.238Z,101052.87
2019-02-28T03:12:39.936Z,101055.71
2019-02-28T03:17:46.526Z,101045.92
2019-02-28T03:22:47.243Z,101040.33
2019-02-28T03:27:55.044Z,101036.82
2019-02-28T03:32:54.584Z,101032.84
2019-02-28T03:37:57.280Z,101027.77
2019-02-28T03:43:05.355Z,101019.60
2019-02-28T03:48:04.574Z,101018.03
2019-02-28T03:53:07.313Z,101016.66
2019-02-28T03:58:10.195Z,101003.36
2019-02-28T04:03:12.904Z,100995.63
2019-02-28T04:08:15.679Z,100989.12
2019-02-28T04:13:19.521Z,100987.65
2019-02-28T04:18:23.159Z,100994.13
2019-02-28T04:23:25.903Z,100991.53
2019-02-28T04:28:28.617Z,100990.66
2019-02-28T04:33:37.361Z,100988.59
2019-02-28T04:38:36.071Z,100984.06
2019-02-28T04:43:41.597Z,100988.94
2019-02-28T04:48:45.661Z,100977.65
2019-02-28T04:53:52.626Z,100974.27
2019-02-28T04:58:53.361Z,100967.72
2019-02-28T05:03:56.139Z,100962.83
2019-02-28T05:08:58.887Z,100972.34
2019-02-28T05:14:01.633Z,100970.67
2019-02-28T05:19:04.424Z,100973.37
2019-02-28T05:24:07.942Z,100974.35
2019-02-28T05:29:12.040Z,100985.70
2019-02-28T05:34:16.739Z,100989.28
2019-02-28T05:39:19.583Z,100985.41
2019-02-28T05:44:22.290Z,100984.61
2019-02-28T05:49:25.060Z,100998.05
2019-02-28T05:59:46.455Z,101003.55
2019-02-28T06:04:50.490Z,101003.63
2019-02-28T06:09:54.956Z,101016.20
2019-02-28T06:15:03.317Z,101016.74
2019-02-28T06:20:05.735Z,101014.95
2019-02-28T06:25:10.334Z,101006.23
2019-02-28T06:30:14.953Z,101010.52
2019-02-28T06:35:20.466Z,101013.96
2019-02-28T06:40:26.153Z,101012.17
2019-02-28T06:45:31.103Z,101004.36
2019-02-28T06:50:35.030Z,100993.11
2019-02-28T06:55:47.152Z,100996.31
2019-02-28T07:00:50.618Z,101005.11
2019-02-28T07:05:54.390Z,101007.08
2019-02-28T07:10:58.112Z,101011.83
2019-02-28T07:16:04.307Z,101012.14
2019-02-28T07:21:07.836Z,101010.75
2019-02-28T07:26:11.451Z,101013.29
2019-02-28T07:31:14.141Z,101004.95
2019-02-28T07:36:16.847Z,101012.95
2019-02-28T07:41:20.329Z,101005.70
2019-02-28T07:46:24.709Z,101013.28
2019-02-28T07:51:27.626Z,101004.78
2019-02-28T07:56:31.409Z,101011.89
2019-02-28T08:01:34.150Z,101015.05
2019-02-28T08:06:39.234Z,101010.28
2019-02-28T08:11:41.627Z,101016.50
2019-02-28T08:16:44.343Z,101014.84
2019-02-28T08:21:50.208Z,101007.11
2019-02-28T08:26:53.505Z,100990.96
2019-02-28T08:31:57.568Z,100990.31
2019-02-28T08:37:00.443Z,100992.00
2019-02-28T08:42:04.735Z,100990.05
2019-02-28T08:47:07.984Z,100983.91
2019-02-28T08:52:12.058Z,100970.78
2019-02-28T08:57:15.651Z,100975.27
2019-02-28T09:02:20.144Z,100984.37
2019-02-28T09:07:23.962Z,100973.63
2019-02-28T09:12:29.991Z,100958.56
2019-02-28T09:17:33.483Z,100968.99
2019-02-28T09:22:38.034Z,100960.47
2019-02-28T09:27:41.976Z,100968.00
2019-02-28T09:32:48.217Z,100957.69
2019-02-28T09:37:51.206Z,100954.91
2019-02-28T09:42:55.537Z,100965.31
2019-02-28T09:48:02.018Z,100953.46
2019-02-28T09:53:05.505Z,100958.70
2019-02-28T09:58:09.479Z,100954.74
2019-02-28T10:03:15.476Z,100959.52
2019-02-28T10:08:21.813Z,100967.07
2019-02-28T10:13:26.353Z,100955.41
2019-02-28T10:18:30.480Z,100964.16
2019-02-28T10:23:33.918Z,100957.62
2019-02-28T10:28:38.503Z,100968.38
2019-02-28T10:33:42.313Z,100976.52
2019-02-28T10:38:46.489Z,100984.27
2019-02-28T10:43:54.785Z,100977.70
2019-02-28T10:48:56.750Z,100971.78
2019-02-28T10:54:00.715Z,100968.85
2019-02-28T10:59:05.328Z,100976.53
2019-02-28T11:04:09.563Z,100978.55
2019-02-28T11:09:21.692Z,100968.42
2019-02-28T11:14:26.346Z,100971.63
2019-02-28T11:19:30.816Z,100978.25
2019-02-28T11:24:35.136Z,100979.07
2019-02-28T11:29:38.896Z,100979.22
2019-02-28T11:34:42.838Z,100978.63
2019-02-28T11:39:47.100Z,100973.86
2019-02-28T11:44:50.819Z,100961.95
2019-02-28T11:50:00.366Z,100964.02
2019-02-28T11:55:02.361Z,100961.05
2019-02-28T12:00:14.185Z,100945.27
2019-02-28T12:05:20.435Z,100950.07
2019-02-28T12:10:27.070Z,100959.73
2019-02-28T12:15:31.770Z,100943.78
2019-02-28T12:20:35.886Z,100939.98
2019-02-28T12:25:42.487Z,100935.77
2019-02-28T12:30:45.156Z,100927.47
2019-02-28T12:35:48.778Z,100932.88
2019-02-28T12:40:52.989Z,100920.67
2019-02-28T12:45:59.947Z,100906.66
2019-02-28T12:51:05.368Z,100923.81
2019-02-28T12:56:11.247Z,100921.58
2019-02-28T13:01:14.194Z,100918.66
2019-02-28T13:06:23.413Z,100922.69
2019-02-28T13:11:23.434Z,100932.06
2019-02-28T13:16:27.430Z,100926.72
2019-02-28T13:21:31.339Z,100922.17
2019-02-28T13:26:34.797Z,100919.70
2019-02-28T13:31:38.510Z,100924.70
2019-02-28T13:36:42.778Z,100928.18
2019-02-28T13:41:46.967Z,100922.53
2019-02-28T13:46:50.878Z,100916.56
2019-02-28T13:51:54.750Z,100915.37
2019-02-28T13:56:57.747Z,100917.85
2019-02-28T14:02:00.728Z,100922.05
2019-02-28T14:07:03.778Z,100926.70
2019-02-28T14:12:06.703Z,100932.68
2019-02-28T14:17:09.525Z,100933.83
2019-02-28T14:22:12.368Z,100925.36
2019-02-28T14:27:15.218Z,100920.79
2019-02-28T14:32:17.951Z,100919.06
2019-02-28T14:37:20.695Z,100919.99
2019-02-28T14:42:23.452Z,100914.47
2019-02-28T14:47:28.500Z,100902.75
2019-02-28T14:52:30.832Z,100905.00
2019-02-28T14:57:33.733Z,100902.56
2019-02-28T15:02:36.586Z,100900.03
2019-02-28T15:07:39.735Z,100886.84
2019-02-28T15:12:44.212Z,100877.87
2019-02-28T15:17:47.073Z,100882.74
2019-02-28T15:22:52.507Z,100884.13
2019-02-28T15:27:54.680Z,100873.91
2019-02-28T15:32:57.445Z,100877.08
2019-02-28T15:38:00.162Z,100866.89
2019-02-28T15:43:02.987Z,100870.53
2019-02-28T15:48:05.724Z,100866.22
2019-02-28T15:53:11.193Z,100868.76
2019-02-28T15:58:13.135Z,100878.62
2019-02-28T16:03:16.790Z,100875.34
2019-02-28T16:08:20.212Z,100872.07
2019-02-28T16:13:25.877Z,100862.81
2019-02-28T16:18:27.562Z,100857.05
2019-02-28T16:23:31.083Z,100855.33
2019-02-28T16:28:34.078Z,100854.69
2019-02-28T16:33:37.361Z,100861.80
2019-02-28T16:38:42.411Z,100859.38
2019-02-28T16:43:45.081Z,100864.34
2019-02-28T16:48:47.806Z,100869.88
2019-02-28T16:53:50.511Z,100872.75
2019-02-28T16:58:53.789Z,100872.69
2019-02-28T17:03:58.068Z,100862.69
2019-02-28T17:09:32.458Z,100861.23
2019-02-28T17:14:35.309Z,100870.02
2019-02-28T17:19:38.105Z,100867.67
2019-02-28T17:24:45.737Z,100871.55
2019-02-28T17:29:53.619Z,100870.67
2019-02-28T17:34:58.982Z,100864.24
2019-02-28T17:40:01.054Z,100867.28
2019-02-28T17:45:23.421Z,100874.23
2019-02-28T17:51:03.051Z,100875.11
2019-02-28T17:56:44.636Z,100865.62
2019-02-28T18:02:39.548Z,100870.81
2019-02-28T18:08:37.493Z,100863.58
2019-02-28T18:14:13.244Z,100862.27
2019-02-28T18:25:17.331Z,100855.54
2019-02-28T18:31:19.249Z,100874.95
2019-02-28T18:36:25.180Z,100856.12
2019-02-28T18:41:27.914Z,100863.52
2019-02-28T18:46:30.857Z,100845.94
2019-02-28T18:51:33.761Z,100847.98
2019-02-28T18:56:44.881Z,100857.97
2019-02-28T19:01:47.723Z,100852.52
2019-02-28T19:06:50.477Z,100843.10
2019-02-28T19:11:57.537Z,100852.36
2019-02-28T19:17:00.349Z,100851.47
2019-02-28T19:22:03.324Z,100858.23
2019-02-28T19:27:06.275Z,100856.84
2019-02-28T19:32:09.140Z,100862.28
2019-02-28T19:37:11.881Z,100863.95
2019-02-28T19:42:14.636Z,100860.92
2019-02-28T19:47:17.391Z,100864.83
2019-02-28T19:52:20.159Z,100869.02
2019-02-28T19:57:22.937Z,100868.83
2019-02-28T20:02:25.918Z,100865.30
2019-02-28T20:07:29.026Z,100868.20
2019-02-28T20:12:31.813Z,100860.33
2019-02-28T20:17:34.697Z,100865.83
2019-02-28T20:22:37.440Z,100862.62
2019-02-28T20:27:40.213Z,100865.73
2019-02-28T20:32:43.015Z,100861.95
2019-02-28T20:37:45.719Z,100862.47
2019-02-28T20:42:48.445Z,100863.92
2019-02-28T20:47:51.210Z,100860.42
2019-02-28T20:52:54.322Z,100862.47
2019-02-28T20:57:57.048Z,100847.84
2019-02-28T21:02:59.815Z,100845.31
2019-02-28T21:08:02.555Z,100846.09
2019-02-28T21:13:05.281Z,100839.80
2019-02-28T21:18:08.053Z,100839.16
2019-02-28T21:23:10.852Z,100839.55
2019-02-28T21:28:13.581Z,100828.80
2019-02-28T21:33:16.330Z,100821.82
2019-02-28T21:38:19.074Z,100830.95
2019-02-28T21:43:21.779Z,100833.97
2019-02-28T21:48:24.569Z,100840.05
2019-02-28T21:53:27.379Z,100836.36
2019-02-28T21:58:31.310Z,100835.68
2019-02-28T22:03:34.157Z,100835.17
2019-02-28T22:08:36.890Z,100832.25
2019-02-28T22:13:39.666Z,100821.88
2019-02-28T22:18:42.405Z,100809.63
2019-02-28T22:23:45.136Z,100802.15
2019-02-28T22:28:47.859Z,100805.61
2019-02-28T22:34:22.345Z,100790.52
2019-02-28T22:39:25.037Z,100785.90
2019-02-28T22:44:27.761Z,100779.16
2019-02-28T22:49:30.465Z,100779.79
2019-02-28T22:54:33.207Z,100770.61
2019-02-28T22:59:35.924Z,100758.19
2019-02-28T23:04:38.928Z,100748.64
2019-02-28T23:09:41.670Z,100742.47
2019-02-28T23:14:44.405Z,100738.53
2019-02-28T23:19:47.128Z,100741.23
2019-02-28T23:24:49.858Z,100741.54
2019-02-28T23:31:24.385Z,100739.16
2019-02-28T23:36:27.262Z,100748.60
2019-02-28T23:41:30.091Z,100738.13
2019-02-28T23:46:32.803Z,100730.30
2019-02-28T23:51:35.516Z,100728.87
2019-02-28T23:56:38.225Z,100727.08
